Aviation Digital Data Service (ADDS)

Output produced by METARs form (0100 UTC 22 September 2017)
found at http://www.aviationweather.gov/adds/metars/
 
MKJP 212315Z 2200/2224 22010KT 9999 SCT020 
     BECMG 2202/2204 35004KT FEW022 
     BECMG 2214/2216 17010KT
       
MKJS 212315Z 2200/2224 14004KT 9999 FEW024 
     BECMG 2214/2216 06010KT FEW022CB